Skip to content
You are here: Gozo Weather
Gozo Weather Station for the very latest live weather conditions from Gozo and Malta
 
 TIME   TEMPERATURE   WINDSPEED   DIRECTION   HUMIDITY   BAROMETER   RAINFALL 
11:20 11.1°C (52.0°F) 11.1 kmh (6.9 mph) ENE 43% 1021.0hPa (30.15 inHg) 1.0mm (0.04 in.)
10:20 11.2°C (52.2 °F) 0.0 kmh (0.0 mph) W 44% 1020.0hPa (30.12 inHg) 1.0mm (0.04 in.)
9:20 11.2°C (52.2 °F) 22.2 kmh (13.8 mph) W 43% 1020.0hPa (30.12 inHg) 1.0mm (0.04 in.)
8:20 11.6°C (52.9 °F) 13.0 kmh (8.1 mph) ENE 43% 1020.0hPa (30.12 inHg) 1.0mm (0.04 in.)
7:20 11.6°C (52.9 °F) 0.0 kmh (0.0 mph) NE 43% 1020.0hPa (30.12 inHg) 1.0mm (0.04 in.)
6:20 12.6°C (54.7 °F) 1.9 kmh (1.2 mph) NE 42% 1019.0hPa (30.09 inHg) 1.0mm (0.04 in.)
5:20 12.7°C (54.9 °F) 16.7 kmh (10.4 mph) NNE 44% 1019.0hPa (30.09 inHg) 1.0mm (0.04 in.)
4:20 12.9°C (55.2 °F) 18.5 kmh (11.5 mph) NE 44% 1019.0hPa (30.09 inHg) 1.0mm (0.04 in.)
3:20 13.1°C (55.6 °F) 22.2 kmh (13.8 mph) ENE 43% 1018.0hPa (30.06 inHg) 1.0mm (0.04 in.)
2:20 13.3°C (55.9 °F) 20.4 kmh (12.7 mph) E 44% 1018.0hPa (30.06 inHg) 1.0mm (0.04 in.)
1:20 13.5°C (56.3 °F) 22.2 kmh (13.8 mph) E 46% 1019.0hPa (30.09 inHg) 1.0mm (0.04 in.)
12:20 13.3°C (55.9 °F) 20.4 kmh (12.7 mph) ENE 47% 1019.0hPa (30.09 inHg) 1.0mm (0.04 in.)
11:20 13.1°C (55.6 °F) 29.6 kmh (18.4 mph) NNE 49% 1020.0hPa (30.12 inHg) 1.0mm (0.04 in.)
10:20 12.6°C (54.7 °F) 25.9 kmh (16.1 mph) ENE 51% 1020.0hPa (30.12 inHg) 1.0mm (0.04 in.)
9:20 12.4°C (54.3 °F) 29.6 kmh (18.4 mph) ENE 52% 1019.0hPa (30.09 inHg) 1.0mm (0.04 in.)
8:20 10.8°C (51.4 °F) 27.8 kmh (17.3 mph) ENE 56% 1019.0hPa (30.09 inHg) 1.0mm (0.04 in.)
7:20 10.6°C (51.1 °F) 27.8 kmh (17.3 mph) NE 59% 1018.0hPa (30.06 inHg) 1.0mm (0.04 in.)
6:20 10.7°C (51.3 °F) 20.4 kmh (12.7 mph) NNE 63% 1018.0hPa (30.06 inHg) 1.0mm (0.04 in.)
5:20 10.6°C (51.1 °F) 0.0 kmh (0.0 mph) ENE 63% 1017.0hPa (30.03 inHg) 1.0mm (0.04 in.)
4:20 10.6°C (51.1 °F) 11.1 kmh (6.9 mph) N 64% 1017.0hPa (30.03 inHg) 1.0mm (0.04 in.)
3:20 10.3°C (50.5 °F) 11.1 kmh (6.9 mph) ENE 62% 1018.0hPa (30.06 inHg) 1.0mm (0.04 in.)
2:20 10.9°C (51.6 °F) 14.8 kmh (9.2 mph) NNW 62% 1017.0hPa (30.03 inHg) 1.0mm (0.04 in.)
1:20 11.3°C (52.3 °F) 0.0 kmh (0.0 mph) NNW 55% 1017.0hPa (30.03 inHg) 1.0mm (0.04 in.)
12:20 12.1°C (53.8 °F) 13.0 kmh (8.1 mph) NNE 51% 1018.0hPa (30.06 inHg) 0.0mm (0.00 in.)

You need the latest version of Flash Player to view some of our content.


Why not download and install the latest version now?
It will only take you a moment and will ensure that you can view all the latest flash designed websites.

Translate this page

Animated Satellite

Click per aprire http://www.gozo.ws/Animation.php
copyright 2017 EUMETSAT

European Lightning Activity


Please click image for full size

Sponsored Links